sensor_id;sensor_type;location;lat;lon;timestamp;temperature;humidity
47521;DHT22;32291;52.010;4.446;2023-04-03T00:00:21;3.50;99.90
47521;DHT22;32291;52.010;4.446;2023-04-03T00:01:23;3.50;99.90
47521;DHT22;32291;52.010;4.446;2023-04-03T00:02:25;3.50;99.90
47521;DHT22;32291;52.010;4.446;2023-04-03T00:03:27;3.50;99.90
47521;DHT22;32291;52.010;4.446;2023-04-03T00:04:29;3.50;99.90
47521;DHT22;32291;52.010;4.446;2023-04-03T00:05:31;3.50;99.90
47521;DHT22;32291;52.010;4.446;2023-04-03T00:06:32;3.50;99.90
47521;DHT22;32291;52.010;4.446;2023-04-03T00:07:34;3.50;99.90
47521;DHT22;32291;52.010;4.446;2023-04-03T00:08:37;3.40;99.90
47521;DHT22;32291;52.010;4.446;2023-04-03T00:09:40;3.40;99.90
47521;DHT22;32291;52.010;4.446;2023-04-03T00:10:42;3.40;99.90
47521;DHT22;32291;52.010;4.446;2023-04-03T00:11:43;3.50;99.90
47521;DHT22;32291;52.010;4.446;2023-04-03T00:12:46;3.40;99.90
47521;DHT22;32291;52.010;4.446;2023-04-03T00:13:48;3.40;99.90
47521;DHT22;32291;52.010;4.446;2023-04-03T00:14:50;3.40;99.90
47521;DHT22;32291;52.010;4.446;2023-04-03T00:15:52;3.40;99.90
47521;DHT22;32291;52.010;4.446;2023-04-03T00:16:54;3.30;99.90
47521;DHT22;32291;52.010;4.446;2023-04-03T00:17:56;3.30;99.90
47521;DHT22;32291;52.010;4.446;2023-04-03T00:18:58;3.60;99.90
47521;DHT22;32291;52.010;4.446;2023-04-03T00:20:00;3.30;99.90
47521;DHT22;32291;52.010;4.446;2023-04-03T00:21:03;3.20;99.90
47521;DHT22;32291;52.010;4.446;2023-04-03T00:22:05;3.20;99.90
47521;DHT22;32291;52.010;4.446;2023-04-03T00:23:07;3.20;99.90
47521;DHT22;32291;52.010;4.446;2023-04-03T00:24:09;3.20;99.90
47521;DHT22;32291;52.010;4.446;2023-04-03T00:25:12;3.20;99.90
47521;DHT22;32291;52.010;4.446;2023-04-03T00:26:13;3.20;99.90
47521;DHT22;32291;52.010;4.446;2023-04-03T00:27:15;3.20;99.90
47521;DHT22;32291;52.010;4.446;2023-04-03T00:28:17;3.10;99.90
47521;DHT22;32291;52.010;4.446;2023-04-03T00:29:18;3.10;99.90
47521;DHT22;32291;52.010;4.446;2023-04-03T00:30:21;3.10;99.90
47521;DHT22;32291;52.010;4.446;2023-04-03T00:31:23;3.20;99.90
47521;DHT22;32291;52.010;4.446;2023-04-03T00:32:25;3.10;99.90
47521;DHT22;32291;52.010;4.446;2023-04-03T00:33:26;3.20;99.90
47521;DHT22;32291;52.010;4.446;2023-04-03T00:34:28;3.10;99.90
47521;DHT22;32291;52.010;4.446;2023-04-03T00:35:30;3.10;99.90
47521;DHT22;32291;52.010;4.446;2023-04-03T00:36:32;3.10;99.90
47521;DHT22;32291;52.010;4.446;2023-04-03T00:37:34;3.10;99.90
47521;DHT22;32291;52.010;4.446;2023-04-03T00:38:36;3.30;99.90
47521;DHT22;32291;52.010;4.446;2023-04-03T00:39:38;3.00;99.90
47521;DHT22;32291;52.010;4.446;2023-04-03T00:40:43;3.00;99.90
47521;DHT22;32291;52.010;4.446;2023-04-03T00:41:47;3.00;99.90
47521;DHT22;32291;52.010;4.446;2023-04-03T00:42:51;3.00;99.90
47521;DHT22;32291;52.010;4.446;2023-04-03T00:43:57;3.00;99.90
47521;DHT22;32291;52.010;4.446;2023-04-03T00:46:02;2.90;99.90
47521;DHT22;32291;52.010;4.446;2023-04-03T00:47:08;2.90;99.90
47521;DHT22;32291;52.010;4.446;2023-04-03T00:48:17;2.90;99.90
47521;DHT22;32291;52.010;4.446;2023-04-03T00:49:22;2.90;99.90
47521;DHT22;32291;52.010;4.446;2023-04-03T00:50:25;2.90;99.90
47521;DHT22;32291;52.010;4.446;2023-04-03T00:51:30;2.80;99.90
47521;DHT22;32291;52.010;4.446;2023-04-03T00:52:31;2.80;99.90
47521;DHT22;32291;52.010;4.446;2023-04-03T00:53:40;2.80;99.90
47521;DHT22;32291;52.010;4.446;2023-04-03T00:54:47;2.80;99.90
47521;DHT22;32291;52.010;4.446;2023-04-03T00:55:53;2.70;99.90
47521;DHT22;32291;52.010;4.446;2023-04-03T00:56:57;2.70;99.90
47521;DHT22;32291;52.010;4.446;2023-04-03T00:58:00;2.70;99.90
47521;DHT22;32291;52.010;4.446;2023-04-03T00:59:10;2.70;99.90
47521;DHT22;32291;52.010;4.446;2023-04-03T01:00:19;2.70;99.90
47521;DHT22;32291;52.010;4.446;2023-04-03T01:01:26;2.60;99.90
47521;DHT22;32291;52.010;4.446;2023-04-03T01:02:29;2.60;99.90
47521;DHT22;32291;52.010;4.446;2023-04-03T01:03:31;2.60;99.90
47521;DHT22;32291;52.010;4.446;2023-04-03T01:04:36;2.60;99.90
47521;DHT22;32291;52.010;4.446;2023-04-03T01:05:40;2.60;99.90
47521;DHT22;32291;52.010;4.446;2023-04-03T01:06:42;2.50;99.90
47521;DHT22;32291;52.010;4.446;2023-04-03T01:07:45;2.60;99.90
47521;DHT22;32291;52.010;4.446;2023-04-03T01:08:49;2.50;99.90
47521;DHT22;32291;52.010;4.446;2023-04-03T01:09:56;2.60;99.90
47521;DHT22;32291;52.010;4.446;2023-04-03T01:11:00;2.50;99.90
47521;DHT22;32291;52.010;4.446;2023-04-03T01:12:21;2.50;99.90
47521;DHT22;32291;52.010;4.446;2023-04-03T01:13:28;2.50;99.90
47521;DHT22;32291;52.010;4.446;2023-04-03T01:14:32;2.70;99.90
47521;DHT22;32291;52.010;4.446;2023-04-03T01:15:33;2.60;99.90
47521;DHT22;32291;52.010;4.446;2023-04-03T01:16:36;2.50;99.90
47521;DHT22;32291;52.010;4.446;2023-04-03T01:17:52;2.40;99.90
47521;DHT22;32291;52.010;4.446;2023-04-03T01:18:55;2.40;99.90
47521;DHT22;32291;52.010;4.446;2023-04-03T01:20:13;2.50;99.90
47521;DHT22;32291;52.010;4.446;2023-04-03T01:22:05;2.50;99.90
47521;DHT22;32291;52.010;4.446;2023-04-03T01:25:14;2.20;99.90
47521;DHT22;32291;52.010;4.446;2023-04-03T01:26:15;2.50;99.90
47521;DHT22;32291;52.010;4.446;2023-04-03T01:27:17;2.50;99.90
47521;DHT22;32291;52.010;4.446;2023-04-03T01:29:30;2.50;99.90
47521;DHT22;32291;52.010;4.446;2023-04-03T01:30:35;2.50;99.90
47521;DHT22;32291;52.010;4.446;2023-04-03T01:31:55;2.50;99.90
47521;DHT22;32291;52.010;4.446;2023-04-03T01:32:59;2.50;99.90
47521;DHT22;32291;52.010;4.446;2023-04-03T01:34:01;2.50;99.90
47521;DHT22;32291;52.010;4.446;2023-04-03T01:35:07;2.50;99.90
47521;DHT22;32291;52.010;4.446;2023-04-03T01:36:20;2.50;99.90
47521;DHT22;32291;52.010;4.446;2023-04-03T01:37:25;2.50;99.90
47521;DHT22;32291;52.010;4.446;2023-04-03T01:38:27;2.70;99.90
47521;DHT22;32291;52.010;4.446;2023-04-03T01:39:28;2.50;99.90
47521;DHT22;32291;52.010;4.446;2023-04-03T01:40:30;2.50;99.90
47521;DHT22;32291;52.010;4.446;2023-04-03T01:41:32;2.50;99.90
47521;DHT22;32291;52.010;4.446;2023-04-03T01:42:34;2.50;99.90
47521;DHT22;32291;52.010;4.446;2023-04-03T01:43:36;2.40;99.90
47521;DHT22;32291;52.010;4.446;2023-04-03T01:44:38;2.50;99.90
47521;DHT22;32291;52.010;4.446;2023-04-03T01:45:39;2.40;99.90
47521;DHT22;32291;52.010;4.446;2023-04-03T01:46:41;2.40;99.90
47521;DHT22;32291;52.010;4.446;2023-04-03T01:47:43;2.40;99.90
47521;DHT22;32291;52.010;4.446;2023-04-03T01:48:45;2.50;99.90
47521;DHT22;32291;52.010;4.446;2023-04-03T01:49:47;2.40;99.90
47521;DHT22;32291;52.010;4.446;2023-04-03T01:50:49;2.40;99.90
47521;DHT22;32291;52.010;4.446;2023-04-03T01:51:50;2.40;99.90
47521;DHT22;32291;52.010;4.446;2023-04-03T01:52:52;2.40;99.90
47521;DHT22;32291;52.010;4.446;2023-04-03T01:53:54;2.40;99.90
47521;DHT22;32291;52.010;4.446;2023-04-03T01:54:55;2.40;99.90
47521;DHT22;32291;52.010;4.446;2023-04-03T01:55:57;2.30;99.90
47521;DHT22;32291;52.010;4.446;2023-04-03T01:56:59;2.40;99.90
47521;DHT22;32291;52.010;4.446;2023-04-03T01:58:01;2.30;99.90
47521;DHT22;32291;52.010;4.446;2023-04-03T01:59:03;2.60;99.90
47521;DHT22;32291;52.010;4.446;2023-04-03T02:00:08;2.30;99.90
47521;DHT22;32291;52.010;4.446;2023-04-03T02:01:11;2.30;99.90
47521;DHT22;32291;52.010;4.446;2023-04-03T02:02:12;2.20;99.90
47521;DHT22;32291;52.010;4.446;2023-04-03T02:03:15;2.20;99.90
47521;DHT22;32291;52.010;4.446;2023-04-03T02:04:17;2.20;99.90
47521;DHT22;32291;52.010;4.446;2023-04-03T02:05:19;2.20;99.90
47521;DHT22;32291;52.010;4.446;2023-04-03T02:06:21;2.10;99.90
47521;DHT22;32291;52.010;4.446;2023-04-03T02:07:23;2.20;99.90
47521;DHT22;32291;52.010;4.446;2023-04-03T02:08:24;2.10;99.90
47521;DHT22;32291;52.010;4.446;2023-04-03T02:09:27;2.10;99.90
47521;DHT22;32291;52.010;4.446;2023-04-03T02:10:28;2.00;99.90
47521;DHT22;32291;52.010;4.446;2023-04-03T02:11:31;2.00;99.90
47521;DHT22;32291;52.010;4.446;2023-04-03T02:12:33;2.00;99.90
47521;DHT22;32291;52.010;4.446;2023-04-03T02:13:35;2.00;99.90
47521;DHT22;32291;52.010;4.446;2023-04-03T02:14:36;2.00;99.90
47521;DHT22;32291;52.010;4.446;2023-04-03T02:15:39;2.00;99.90
47521;DHT22;32291;52.010;4.446;2023-04-03T02:16:40;2.00;99.90
47521;DHT22;32291;52.010;4.446;2023-04-03T02:17:42;1.90;99.90
47521;DHT22;32291;52.010;4.446;2023-04-03T02:18:44;1.90;99.90
47521;DHT22;32291;52.010;4.446;2023-04-03T02:19:46;1.90;99.90
47521;DHT22;32291;52.010;4.446;2023-04-03T02:20:47;1.90;99.90
47521;DHT22;32291;52.010;4.446;2023-04-03T02:21:49;1.90;99.90
47521;DHT22;32291;52.010;4.446;2023-04-03T02:22:51;1.90;99.90
47521;DHT22;32291;52.010;4.446;2023-04-03T02:23:53;1.90;99.90
47521;DHT22;32291;52.010;4.446;2023-04-03T02:24:54;1.90;99.90
47521;DHT22;32291;52.010;4.446;2023-04-03T02:26:07;1.90;99.90
47521;DHT22;32291;52.010;4.446;2023-04-03T02:27:10;1.90;99.90
47521;DHT22;32291;52.010;4.446;2023-04-03T02:28:12;1.90;99.90
47521;DHT22;32291;52.010;4.446;2023-04-03T02:29:14;1.90;99.90
47521;DHT22;32291;52.010;4.446;2023-04-03T02:30:16;1.90;99.90
47521;DHT22;32291;52.010;4.446;2023-04-03T02:31:17;1.90;99.90
47521;DHT22;32291;52.010;4.446;2023-04-03T02:32:19;1.80;99.90
47521;DHT22;32291;52.010;4.446;2023-04-03T02:33:21;1.90;99.90
47521;DHT22;32291;52.010;4.446;2023-04-03T02:34:23;1.80;99.90
47521;DHT22;32291;52.010;4.446;2023-04-03T02:35:25;1.80;99.90
47521;DHT22;32291;52.010;4.446;2023-04-03T02:36:27;1.80;99.90
47521;DHT22;32291;52.010;4.446;2023-04-03T02:37:29;1.80;99.90
47521;DHT22;32291;52.010;4.446;2023-04-03T02:38:31;1.80;99.90
47521;DHT22;32291;52.010;4.446;2023-04-03T02:39:34;1.70;99.90
47521;DHT22;32291;52.010;4.446;2023-04-03T02:40:36;1.70;99.90
47521;DHT22;32291;52.010;4.446;2023-04-03T02:41:39;2.20;99.90
47521;DHT22;32291;52.010;4.446;2023-04-03T02:42:40;1.70;99.90
47521;DHT22;32291;52.010;4.446;2023-04-03T02:43:42;1.70;99.90
47521;DHT22;32291;52.010;4.446;2023-04-03T02:44:43;1.70;99.90
47521;DHT22;32291;52.010;4.446;2023-04-03T02:45:45;1.70;99.90
47521;DHT22;32291;52.010;4.446;2023-04-03T02:46:47;1.70;99.90
47521;DHT22;32291;52.010;4.446;2023-04-03T02:47:49;1.70;99.90
47521;DHT22;32291;52.010;4.446;2023-04-03T02:48:51;1.70;99.90
47521;DHT22;32291;52.010;4.446;2023-04-03T02:49:53;1.60;99.90
47521;DHT22;32291;52.010;4.446;2023-04-03T02:50:55;1.70;99.90
47521;DHT22;32291;52.010;4.446;2023-04-03T02:51:57;1.70;99.90
47521;DHT22;32291;52.010;4.446;2023-04-03T02:52:59;1.70;99.90
47521;DHT22;32291;52.010;4.446;2023-04-03T02:54:00;1.70;99.90
47521;DHT22;32291;52.010;4.446;2023-04-03T02:55:02;1.70;99.90
47521;DHT22;32291;52.010;4.446;2023-04-03T02:56:05;1.60;99.90
47521;DHT22;32291;52.010;4.446;2023-04-03T02:57:07;1.60;99.90
47521;DHT22;32291;52.010;4.446;2023-04-03T02:58:11;1.60;99.90
47521;DHT22;32291;52.010;4.446;2023-04-03T02:59:13;1.60;99.90
47521;DHT22;32291;52.010;4.446;2023-04-03T03:00:15;1.60;99.90
47521;DHT22;32291;52.010;4.446;2023-04-03T03:01:18;1.60;99.90
47521;DHT22;32291;52.010;4.446;2023-04-03T03:02:20;1.60;99.90
47521;DHT22;32291;52.010;4.446;2023-04-03T03:03:22;1.60;99.90
47521;DHT22;32291;52.010;4.446;2023-04-03T03:04:24;1.60;99.90
47521;DHT22;32291;52.010;4.446;2023-04-03T03:05:26;1.50;99.90
47521;DHT22;32291;52.010;4.446;2023-04-03T03:06:28;1.50;99.90
47521;DHT22;32291;52.010;4.446;2023-04-03T03:07:30;1.50;99.90
47521;DHT22;32291;52.010;4.446;2023-04-03T03:08:32;1.50;99.90
47521;DHT22;32291;52.010;4.446;2023-04-03T03:09:34;1.50;99.90
47521;DHT22;32291;52.010;4.446;2023-04-03T03:10:36;1.50;99.90
47521;DHT22;32291;52.010;4.446;2023-04-03T03:11:38;1.40;99.90
47521;DHT22;32291;52.010;4.446;2023-04-03T03:12:40;1.40;99.90
47521;DHT22;32291;52.010;4.446;2023-04-03T03:13:42;1.50;99.90
47521;DHT22;32291;52.010;4.446;2023-04-03T03:14:44;1.80;99.90
47521;DHT22;32291;52.010;4.446;2023-04-03T03:15:45;1.50;99.90
47521;DHT22;32291;52.010;4.446;2023-04-03T03:16:47;1.40;99.90
47521;DHT22;32291;52.010;4.446;2023-04-03T03:17:50;1.40;99.90
47521;DHT22;32291;52.010;4.446;2023-04-03T03:18:51;1.40;99.90
47521;DHT22;32291;52.010;4.446;2023-04-03T03:19:53;1.40;99.90
47521;DHT22;32291;52.010;4.446;2023-04-03T03:20:56;1.40;99.90
47521;DHT22;32291;52.010;4.446;2023-04-03T03:21:59;1.70;99.90
47521;DHT22;32291;52.010;4.446;2023-04-03T03:23:01;1.40;99.90
47521;DHT22;32291;52.010;4.446;2023-04-03T03:24:03;1.40;99.90
47521;DHT22;32291;52.010;4.446;2023-04-03T03:25:05;1.30;99.90
47521;DHT22;32291;52.010;4.446;2023-04-03T03:26:09;1.30;99.90
47521;DHT22;32291;52.010;4.446;2023-04-03T03:27:11;1.30;99.90
47521;DHT22;32291;52.010;4.446;2023-04-03T03:28:13;1.30;99.90
47521;DHT22;32291;52.010;4.446;2023-04-03T03:29:15;1.30;99.90
47521;DHT22;32291;52.010;4.446;2023-04-03T03:30:17;1.40;99.90
47521;DHT22;32291;52.010;4.446;2023-04-03T03:31:19;1.30;99.90
47521;DHT22;32291;52.010;4.446;2023-04-03T03:32:21;1.30;99.90
47521;DHT22;32291;52.010;4.446;2023-04-03T03:33:22;1.30;99.90
47521;DHT22;32291;52.010;4.446;2023-04-03T03:34:24;1.20;99.90
47521;DHT22;32291;52.010;4.446;2023-04-03T03:35:26;1.30;99.90
47521;DHT22;32291;52.010;4.446;2023-04-03T03:36:27;1.30;99.90
47521;DHT22;32291;52.010;4.446;2023-04-03T03:37:29;1.30;99.90
47521;DHT22;32291;52.010;4.446;2023-04-03T03:38:31;1.30;99.90
47521;DHT22;32291;52.010;4.446;2023-04-03T03:39:32;1.30;99.90
47521;DHT22;32291;52.010;4.446;2023-04-03T03:40:34;1.30;99.90
47521;DHT22;32291;52.010;4.446;2023-04-03T03:41:36;1.30;99.90
47521;DHT22;32291;52.010;4.446;2023-04-03T03:42:38;1.30;99.90
47521;DHT22;32291;52.010;4.446;2023-04-03T03:43:40;1.30;99.90
47521;DHT22;32291;52.010;4.446;2023-04-03T03:44:42;1.30;99.90
47521;DHT22;32291;52.010;4.446;2023-04-03T03:45:44;1.30;99.90
47521;DHT22;32291;52.010;4.446;2023-04-03T03:46:46;1.20;99.90
47521;DHT22;32291;52.010;4.446;2023-04-03T03:47:48;1.60;99.90
47521;DHT22;32291;52.010;4.446;2023-04-03T03:48:49;1.20;99.90
47521;DHT22;32291;52.010;4.446;2023-04-03T03:49:51;1.20;99.90
47521;DHT22;32291;52.010;4.446;2023-04-03T03:50:53;1.20;99.90
47521;DHT22;32291;52.010;4.446;2023-04-03T03:51:55;1.20;99.90
47521;DHT22;32291;52.010;4.446;2023-04-03T03:52:56;1.20;99.90
47521;DHT22;32291;52.010;4.446;2023-04-03T03:53:58;1.20;99.90
47521;DHT22;32291;52.010;4.446;2023-04-03T03:55:00;1.20;99.90
47521;DHT22;32291;52.010;4.446;2023-04-03T03:56:02;1.20;99.90
47521;DHT22;32291;52.010;4.446;2023-04-03T03:57:06;1.20;99.90
47521;DHT22;32291;52.010;4.446;2023-04-03T03:58:08;1.20;99.90
47521;DHT22;32291;52.010;4.446;2023-04-03T03:59:11;1.30;99.90
47521;DHT22;32291;52.010;4.446;2023-04-03T04:00:14;1.20;99.90
47521;DHT22;32291;52.010;4.446;2023-04-03T04:01:16;1.20;99.90
47521;DHT22;32291;52.010;4.446;2023-04-03T04:02:18;1.20;99.90
47521;DHT22;32291;52.010;4.446;2023-04-03T04:03:19;1.10;99.90
47521;DHT22;32291;52.010;4.446;2023-04-03T04:04:22;1.20;99.90
47521;DHT22;32291;52.010;4.446;2023-04-03T04:05:24;1.10;99.90
47521;DHT22;32291;52.010;4.446;2023-04-03T04:06:26;1.10;99.90
47521;DHT22;32291;52.010;4.446;2023-04-03T04:07:28;1.10;99.90
47521;DHT22;32291;52.010;4.446;2023-04-03T04:08:30;1.10;99.90
47521;DHT22;32291;52.010;4.446;2023-04-03T04:09:32;1.10;99.90
47521;DHT22;32291;52.010;4.446;2023-04-03T04:10:34;1.00;99.90
47521;DHT22;32291;52.010;4.446;2023-04-03T04:11:39;1.00;99.90
47521;DHT22;32291;52.010;4.446;2023-04-03T04:12:41;1.00;99.90
47521;DHT22;32291;52.010;4.446;2023-04-03T04:13:42;1.00;99.90
47521;DHT22;32291;52.010;4.446;2023-04-03T04:14:44;0.90;99.90
47521;DHT22;32291;52.010;4.446;2023-04-03T04:15:47;0.90;99.90
47521;DHT22;32291;52.010;4.446;2023-04-03T04:16:49;0.90;99.90
47521;DHT22;32291;52.010;4.446;2023-04-03T04:17:51;0.90;99.90
47521;DHT22;32291;52.010;4.446;2023-04-03T04:18:52;1.00;99.90
47521;DHT22;32291;52.010;4.446;2023-04-03T04:19:54;0.90;99.90
47521;DHT22;32291;52.010;4.446;2023-04-03T04:20:55;1.00;99.90
47521;DHT22;32291;52.010;4.446;2023-04-03T04:21:58;0.90;99.90
47521;DHT22;32291;52.010;4.446;2023-04-03T04:23:00;0.90;99.90
47521;DHT22;32291;52.010;4.446;2023-04-03T04:24:02;0.90;99.90
47521;DHT22;32291;52.010;4.446;2023-04-03T04:25:04;0.90;99.90
47521;DHT22;32291;52.010;4.446;2023-04-03T04:26:05;0.90;99.90
47521;DHT22;32291;52.010;4.446;2023-04-03T04:27:07;0.90;99.90
47521;DHT22;32291;52.010;4.446;2023-04-03T04:28:08;0.90;99.90
47521;DHT22;32291;52.010;4.446;2023-04-03T04:29:11;0.80;99.90
47521;DHT22;32291;52.010;4.446;2023-04-03T04:30:14;0.90;99.90
47521;DHT22;32291;52.010;4.446;2023-04-03T04:31:15;0.90;99.90
47521;DHT22;32291;52.010;4.446;2023-04-03T04:32:17;0.90;99.90
47521;DHT22;32291;52.010;4.446;2023-04-03T04:33:18;0.90;99.90
47521;DHT22;32291;52.010;4.446;2023-04-03T04:34:21;0.80;99.90
47521;DHT22;32291;52.010;4.446;2023-04-03T04:35:23;0.80;99.90
47521;DHT22;32291;52.010;4.446;2023-04-03T04:36:24;0.80;99.90
47521;DHT22;32291;52.010;4.446;2023-04-03T04:37:26;0.90;99.90
47521;DHT22;32291;52.010;4.446;2023-04-03T04:38:27;0.80;99.90
47521;DHT22;32291;52.010;4.446;2023-04-03T04:39:29;0.80;99.90
47521;DHT22;32291;52.010;4.446;2023-04-03T04:40:31;0.70;99.90
47521;DHT22;32291;52.010;4.446;2023-04-03T04:41:33;0.70;99.90
47521;DHT22;32291;52.010;4.446;2023-04-03T04:42:35;0.70;99.90
47521;DHT22;32291;52.010;4.446;2023-04-03T04:43:37;0.70;99.90
47521;DHT22;32291;52.010;4.446;2023-04-03T04:44:39;0.60;99.90
47521;DHT22;32291;52.010;4.446;2023-04-03T04:45:41;0.60;99.90
47521;DHT22;32291;52.010;4.446;2023-04-03T04:46:43;0.60;99.90
47521;DHT22;32291;52.010;4.446;2023-04-03T04:47:44;0.60;99.90
47521;DHT22;32291;52.010;4.446;2023-04-03T04:48:46;0.50;99.90
47521;DHT22;32291;52.010;4.446;2023-04-03T04:49:49;0.50;99.90
47521;DHT22;32291;52.010;4.446;2023-04-03T04:50:51;0.50;99.90
47521;DHT22;32291;52.010;4.446;2023-04-03T04:51:53;0.50;99.90
47521;DHT22;32291;52.010;4.446;2023-04-03T04:52:54;0.50;99.90
47521;DHT22;32291;52.010;4.446;2023-04-03T04:53:56;0.50;99.90
47521;DHT22;32291;52.010;4.446;2023-04-03T04:54:57;0.60;99.90
47521;DHT22;32291;52.010;4.446;2023-04-03T04:55:59;0.60;99.90
47521;DHT22;32291;52.010;4.446;2023-04-03T04:57:01;0.50;99.90
47521;DHT22;32291;52.010;4.446;2023-04-03T04:58:02;0.50;99.90
47521;DHT22;32291;52.010;4.446;2023-04-03T04:59:04;0.50;99.90
47521;DHT22;32291;52.010;4.446;2023-04-03T05:00:06;0.60;99.90
47521;DHT22;32291;52.010;4.446;2023-04-03T05:01:09;0.60;99.90
47521;DHT22;32291;52.010;4.446;2023-04-03T05:02:12;0.50;99.90
47521;DHT22;32291;52.010;4.446;2023-04-03T05:03:14;0.50;99.90
47521;DHT22;32291;52.010;4.446;2023-04-03T05:04:16;0.50;99.90
47521;DHT22;32291;52.010;4.446;2023-04-03T05:05:18;0.50;99.90
47521;DHT22;32291;52.010;4.446;2023-04-03T05:06:20;0.50;99.90
47521;DHT22;32291;52.010;4.446;2023-04-03T05:07:22;0.50;99.90
47521;DHT22;32291;52.010;4.446;2023-04-03T05:08:24;0.50;99.90
47521;DHT22;32291;52.010;4.446;2023-04-03T05:09:26;0.40;99.90
47521;DHT22;32291;52.010;4.446;2023-04-03T05:10:28;0.50;99.90
47521;DHT22;32291;52.010;4.446;2023-04-03T05:11:30;0.50;99.90
47521;DHT22;32291;52.010;4.446;2023-04-03T05:12:32;0.50;99.90
47521;DHT22;32291;52.010;4.446;2023-04-03T05:13:33;0.50;99.90
47521;DHT22;32291;52.010;4.446;2023-04-03T05:14:35;0.50;99.90
47521;DHT22;32291;52.010;4.446;2023-04-03T05:15:37;0.50;99.90
47521;DHT22;32291;52.010;4.446;2023-04-03T05:16:39;0.50;99.90
47521;DHT22;32291;52.010;4.446;2023-04-03T05:17:40;0.50;99.90
47521;DHT22;32291;52.010;4.446;2023-04-03T05:18:42;0.50;99.90
47521;DHT22;32291;52.010;4.446;2023-04-03T05:19:43;0.60;99.90
47521;DHT22;32291;52.010;4.446;2023-04-03T05:20:45;0.50;99.90
47521;DHT22;32291;52.010;4.446;2023-04-03T05:21:50;0.50;99.90
47521;DHT22;32291;52.010;4.446;2023-04-03T05:22:52;1.10;99.90
47521;DHT22;32291;52.010;4.446;2023-04-03T05:23:54;0.60;99.90
47521;DHT22;32291;52.010;4.446;2023-04-03T05:24:56;0.60;99.90
47521;DHT22;32291;52.010;4.446;2023-04-03T05:25:58;0.60;99.90
47521;DHT22;32291;52.010;4.446;2023-04-03T05:27:00;0.70;99.90
47521;DHT22;32291;52.010;4.446;2023-04-03T05:28:02;0.70;99.90
47521;DHT22;32291;52.010;4.446;2023-04-03T05:29:03;0.70;99.90
47521;DHT22;32291;52.010;4.446;2023-04-03T05:30:06;0.70;99.90
47521;DHT22;32291;52.010;4.446;2023-04-03T05:31:08;0.70;99.90
47521;DHT22;32291;52.010;4.446;2023-04-03T05:32:10;0.70;99.90
47521;DHT22;32291;52.010;4.446;2023-04-03T05:33:13;0.70;99.90
47521;DHT22;32291;52.010;4.446;2023-04-03T05:34:15;0.70;99.90
47521;DHT22;32291;52.010;4.446;2023-04-03T05:35:17;0.70;99.90
47521;DHT22;32291;52.010;4.446;2023-04-03T05:36:19;0.80;99.90
47521;DHT22;32291;52.010;4.446;2023-04-03T05:37:21;0.70;99.90
47521;DHT22;32291;52.010;4.446;2023-04-03T05:38:22;0.70;99.90
47521;DHT22;32291;52.010;4.446;2023-04-03T05:39:24;0.70;99.90
47521;DHT22;32291;52.010;4.446;2023-04-03T05:40:26;0.80;99.90
47521;DHT22;32291;52.010;4.446;2023-04-03T05:41:28;0.80;99.90
47521;DHT22;32291;52.010;4.446;2023-04-03T05:42:30;0.80;99.90
47521;DHT22;32291;52.010;4.446;2023-04-03T05:43:32;0.80;99.90
47521;DHT22;32291;52.010;4.446;2023-04-03T05:44:35;0.80;99.90
47521;DHT22;32291;52.010;4.446;2023-04-03T05:45:38;0.80;99.90
47521;DHT22;32291;52.010;4.446;2023-04-03T05:46:39;0.80;99.90
47521;DHT22;32291;52.010;4.446;2023-04-03T05:47:42;0.80;99.90
47521;DHT22;32291;52.010;4.446;2023-04-03T05:48:44;0.80;99.90
47521;DHT22;32291;52.010;4.446;2023-04-03T05:49:45;0.80;99.90
47521;DHT22;32291;52.010;4.446;2023-04-03T05:50:47;0.80;99.90
47521;DHT22;32291;52.010;4.446;2023-04-03T05:51:49;0.80;99.90
47521;DHT22;32291;52.010;4.446;2023-04-03T05:52:52;0.80;99.90
47521;DHT22;32291;52.010;4.446;2023-04-03T05:54:20;0.80;99.90
47521;DHT22;32291;52.010;4.446;2023-04-03T05:55:24;0.90;99.90
47521;DHT22;32291;52.010;4.446;2023-04-03T05:56:27;0.90;99.90
47521;DHT22;32291;52.010;4.446;2023-04-03T05:57:29;0.90;99.90
47521;DHT22;32291;52.010;4.446;2023-04-03T05:58:30;0.90;99.90
47521;DHT22;32291;52.010;4.446;2023-04-03T05:59:32;0.90;99.90
47521;DHT22;32291;52.010;4.446;2023-04-03T06:00:34;1.00;99.90
47521;DHT22;32291;52.010;4.446;2023-04-03T06:01:35;1.00;99.90
47521;DHT22;32291;52.010;4.446;2023-04-03T06:02:37;1.00;99.90
47521;DHT22;32291;52.010;4.446;2023-04-03T06:03:40;1.00;99.90
47521;DHT22;32291;52.010;4.446;2023-04-03T06:04:42;1.10;99.90
47521;DHT22;32291;52.010;4.446;2023-04-03T06:05:44;1.10;99.90
47521;DHT22;32291;52.010;4.446;2023-04-03T06:07:55;1.20;99.90
47521;DHT22;32291;52.010;4.446;2023-04-03T06:08:58;1.40;99.90
47521;DHT22;32291;52.010;4.446;2023-04-03T06:10:00;1.20;99.90
47521;DHT22;32291;52.010;4.446;2023-04-03T06:11:02;1.30;99.90
47521;DHT22;32291;52.010;4.446;2023-04-03T06:12:03;1.20;99.90
47521;DHT22;32291;52.010;4.446;2023-04-03T06:13:05;1.30;99.90
47521;DHT22;32291;52.010;4.446;2023-04-03T06:14:09;1.30;99.90
47521;DHT22;32291;52.010;4.446;2023-04-03T06:15:11;1.40;99.90
47521;DHT22;32291;52.010;4.446;2023-04-03T06:16:15;1.40;99.90
47521;DHT22;32291;52.010;4.446;2023-04-03T06:17:18;1.40;99.90
47521;DHT22;32291;52.010;4.446;2023-04-03T06:18:20;1.50;99.90
47521;DHT22;32291;52.010;4.446;2023-04-03T06:19:21;1.50;99.90
47521;DHT22;32291;52.010;4.446;2023-04-03T06:20:24;1.50;99.90
47521;DHT22;32291;52.010;4.446;2023-04-03T06:21:26;1.50;99.90
47521;DHT22;32291;52.010;4.446;2023-04-03T06:22:28;1.50;99.90
47521;DHT22;32291;52.010;4.446;2023-04-03T06:23:31;1.60;99.90
47521;DHT22;32291;52.010;4.446;2023-04-03T06:24:34;1.60;99.90
47521;DHT22;32291;52.010;4.446;2023-04-03T06:25:37;1.70;99.90
47521;DHT22;32291;52.010;4.446;2023-04-03T06:26:39;1.70;99.90
47521;DHT22;32291;52.010;4.446;2023-04-03T06:27:41;1.70;99.90
47521;DHT22;32291;52.010;4.446;2023-04-03T06:28:42;2.10;99.90
47521;DHT22;32291;52.010;4.446;2023-04-03T06:29:44;1.70;99.90
47521;DHT22;32291;52.010;4.446;2023-04-03T06:30:46;1.70;99.90
47521;DHT22;32291;52.010;4.446;2023-04-03T06:31:49;1.70;99.90
47521;DHT22;32291;52.010;4.446;2023-04-03T06:32:52;1.80;99.90
47521;DHT22;32291;52.010;4.446;2023-04-03T06:33:53;1.80;99.90
47521;DHT22;32291;52.010;4.446;2023-04-03T06:34:55;1.80;99.90
47521;DHT22;32291;52.010;4.446;2023-04-03T06:35:58;1.90;99.90
47521;DHT22;32291;52.010;4.446;2023-04-03T06:37:00;1.90;99.90
47521;DHT22;32291;52.010;4.446;2023-04-03T06:38:02;1.90;99.90
47521;DHT22;32291;52.010;4.446;2023-04-03T06:39:13;1.90;99.90
47521;DHT22;32291;52.010;4.446;2023-04-03T06:40:21;2.00;99.90
47521;DHT22;32291;52.010;4.446;2023-04-03T06:41:25;2.00;99.90
47521;DHT22;32291;52.010;4.446;2023-04-03T06:42:27;2.00;99.90
47521;DHT22;32291;52.010;4.446;2023-04-03T06:43:28;2.10;99.90
47521;DHT22;32291;52.010;4.446;2023-04-03T06:44:32;2.10;99.90
47521;DHT22;32291;52.010;4.446;2023-04-03T06:45:35;2.10;99.90
47521;DHT22;32291;52.010;4.446;2023-04-03T06:46:38;2.10;99.90
47521;DHT22;32291;52.010;4.446;2023-04-03T06:47:41;2.20;99.90